sensor_id;sensor_type;location;lat;lon;timestamp;P1;P2;P0
23240;PMS7003;11789;53.482;9.862;2023-06-24T00:02:11;11.75;11.75;8.25
23240;PMS7003;11789;53.482;9.862;2023-06-24T00:04:36;13.00;13.00;8.75
23240;PMS7003;11789;53.482;9.862;2023-06-24T00:07:01;16.75;15.25;9.25
23240;PMS7003;11789;53.482;9.862;2023-06-24T00:09:27;14.00;13.75;10.50
23240;PMS7003;11789;53.482;9.862;2023-06-24T00:11:55;18.75;18.00;10.75
23240;PMS7003;11789;53.482;9.862;2023-06-24T00:14:21;16.75;16.75;12.00
23240;PMS7003;11789;53.482;9.862;2023-06-24T00:16:49;18.00;16.00;10.50
23240;PMS7003;11789;53.482;9.862;2023-06-24T00:19:19;19.75;17.50;11.25
23240;PMS7003;11789;53.482;9.862;2023-06-24T00:21:46;15.00;15.00;10.50
23240;PMS7003;11789;53.482;9.862;2023-06-24T00:24:12;18.50;17.25;9.75
23240;PMS7003;11789;53.482;9.862;2023-06-24T00:26:37;18.25;15.75;10.50
23240;PMS7003;11789;53.482;9.862;2023-06-24T00:29:03;16.50;16.50;10.75
23240;PMS7003;11789;53.482;9.862;2023-06-24T00:31:28;17.75;17.75;11.00
23240;PMS7003;11789;53.482;9.862;2023-06-24T00:33:54;18.25;18.25;11.50
23240;PMS7003;11789;53.482;9.862;2023-06-24T00:36:20;23.75;21.50;13.25
23240;PMS7003;11789;53.482;9.862;2023-06-24T00:38:45;26.25;20.00;12.25
23240;PMS7003;11789;53.482;9.862;2023-06-24T00:41:11;20.25;19.75;12.25
23240;PMS7003;11789;53.482;9.862;2023-06-24T00:43:36;18.75;18.75;11.75
23240;PMS7003;11789;53.482;9.862;2023-06-24T00:46:02;14.00;13.25;10.25
23240;PMS7003;11789;53.482;9.862;2023-06-24T00:48:28;18.25;16.50;11.50
23240;PMS7003;11789;53.482;9.862;2023-06-24T00:50:53;23.75;20.00;13.50
23240;PMS7003;11789;53.482;9.862;2023-06-24T00:53:19;19.00;17.25;12.25
23240;PMS7003;11789;53.482;9.862;2023-06-24T00:55:49;20.25;17.25;9.75
23240;PMS7003;11789;53.482;9.862;2023-06-24T00:58:16;22.00;19.25;12.50
23240;PMS7003;11789;53.482;9.862;2023-06-24T01:00:46;18.25;17.00;12.00
23240;PMS7003;11789;53.482;9.862;2023-06-24T01:03:13;20.00;17.75;12.00
23240;PMS7003;11789;53.482;9.862;2023-06-24T01:05:38;20.25;18.25;11.75
23240;PMS7003;11789;53.482;9.862;2023-06-24T01:08:05;18.50;18.25;12.00
23240;PMS7003;11789;53.482;9.862;2023-06-24T01:10:31;21.25;18.25;11.50
23240;PMS7003;11789;53.482;9.862;2023-06-24T01:12:57;16.75;14.50;10.00
23240;PMS7003;11789;53.482;9.862;2023-06-24T01:15:23;16.50;16.50;11.50
23240;PMS7003;11789;53.482;9.862;2023-06-24T01:17:55;20.50;18.75;11.25
23240;PMS7003;11789;53.482;9.862;2023-06-24T01:28:52;20.00;17.50;11.50
23240;PMS7003;11789;53.482;9.862;2023-06-24T01:36:37;20.75;17.00;11.00
23240;PMS7003;11789;53.482;9.862;2023-06-24T01:39:06;19.00;16.50;11.25
23240;PMS7003;11789;53.482;9.862;2023-06-24T01:41:36;20.75;19.75;13.00
23240;PMS7003;11789;53.482;9.862;2023-06-24T01:44:11;17.50;16.75;10.25
23240;PMS7003;11789;53.482;9.862;2023-06-24T01:46:39;13.75;13.75;9.25
23240;PMS7003;11789;53.482;9.862;2023-06-24T01:49:07;21.50;18.50;13.00
23240;PMS7003;11789;53.482;9.862;2023-06-24T01:51:36;17.75;16.25;11.50
23240;PMS7003;11789;53.482;9.862;2023-06-24T01:54:06;20.00;18.25;12.75
23240;PMS7003;11789;53.482;9.862;2023-06-24T01:56:35;17.75;17.75;12.00
23240;PMS7003;11789;53.482;9.862;2023-06-24T01:59:03;23.50;22.25;13.75
23240;PMS7003;11789;53.482;9.862;2023-06-24T02:01:31;17.75;16.50;10.75
23240;PMS7003;11789;53.482;9.862;2023-06-24T02:03:58;24.50;18.75;11.50
23240;PMS7003;11789;53.482;9.862;2023-06-24T02:06:26;23.50;20.25;14.00
23240;PMS7003;11789;53.482;9.862;2023-06-24T02:08:54;19.25;19.25;11.50
23240;PMS7003;11789;53.482;9.862;2023-06-24T02:11:23;19.25;19.00;13.25
23240;PMS7003;11789;53.482;9.862;2023-06-24T02:13:51;19.00;16.75;12.00
23240;PMS7003;11789;53.482;9.862;2023-06-24T02:16:20;21.00;19.25;11.25
23240;PMS7003;11789;53.482;9.862;2023-06-24T02:18:46;20.75;20.75;14.75
23240;PMS7003;11789;53.482;9.862;2023-06-24T02:21:14;19.75;19.00;13.25
23240;PMS7003;11789;53.482;9.862;2023-06-24T02:23:43;21.25;20.25;14.00
23240;PMS7003;11789;53.482;9.862;2023-06-24T02:26:09;24.00;20.00;13.25
23240;PMS7003;11789;53.482;9.862;2023-06-24T02:28:36;20.75;19.75;13.75
23240;PMS7003;11789;53.482;9.862;2023-06-24T02:31:04;20.25;20.25;12.25
23240;PMS7003;11789;53.482;9.862;2023-06-24T02:33:30;19.50;18.50;12.00
23240;PMS7003;11789;53.482;9.862;2023-06-24T02:35:57;21.50;21.50;14.00
23240;PMS7003;11789;53.482;9.862;2023-06-24T02:38:22;22.75;20.75;14.00
23240;PMS7003;11789;53.482;9.862;2023-06-24T02:40:48;21.25;19.00;12.00
23240;PMS7003;11789;53.482;9.862;2023-06-24T02:43:14;22.50;19.50;14.25
23240;PMS7003;11789;53.482;9.862;2023-06-24T02:45:40;18.50;15.75;10.25
23240;PMS7003;11789;53.482;9.862;2023-06-24T02:48:06;21.50;20.00;12.50
23240;PMS7003;11789;53.482;9.862;2023-06-24T02:50:34;18.25;17.75;12.25
23240;PMS7003;11789;53.482;9.862;2023-06-24T02:53:02;19.75;18.50;12.50
23240;PMS7003;11789;53.482;9.862;2023-06-24T02:55:28;18.75;18.00;12.00
23240;PMS7003;11789;53.482;9.862;2023-06-24T02:57:55;19.50;18.00;10.75
23240;PMS7003;11789;53.482;9.862;2023-06-24T03:00:22;21.75;19.00;13.75
23240;PMS7003;11789;53.482;9.862;2023-06-24T03:02:49;21.25;18.75;13.25
23240;PMS7003;11789;53.482;9.862;2023-06-24T03:05:15;19.75;18.00;10.25
23240;PMS7003;11789;53.482;9.862;2023-06-24T03:07:42;19.75;18.00;12.00
23240;PMS7003;11789;53.482;9.862;2023-06-24T03:10:07;23.25;20.00;12.50
23240;PMS7003;11789;53.482;9.862;2023-06-24T03:12:35;20.25;19.00;12.50
23240;PMS7003;11789;53.482;9.862;2023-06-24T03:15:01;18.75;18.75;12.25
23240;PMS7003;11789;53.482;9.862;2023-06-24T03:17:26;20.50;19.50;11.50
23240;PMS7003;11789;53.482;9.862;2023-06-24T03:19:52;24.25;23.00;15.25
23240;PMS7003;11789;53.482;9.862;2023-06-24T03:22:17;22.00;22.00;14.50
23240;PMS7003;11789;53.482;9.862;2023-06-24T03:24:43;25.25;23.25;14.00
23240;PMS7003;11789;53.482;9.862;2023-06-24T03:27:09;29.75;25.75;16.25
23240;PMS7003;11789;53.482;9.862;2023-06-24T03:29:35;24.75;24.75;15.00
23240;PMS7003;11789;53.482;9.862;2023-06-24T03:32:00;26.50;24.50;15.50
23240;PMS7003;11789;53.482;9.862;2023-06-24T03:34:26;24.00;24.00;15.75
23240;PMS7003;11789;53.482;9.862;2023-06-24T03:36:55;21.50;19.75;14.00
23240;PMS7003;11789;53.482;9.862;2023-06-24T03:39:20;25.25;23.00;16.00
23240;PMS7003;11789;53.482;9.862;2023-06-24T03:41:46;15.75;15.75;13.25
23240;PMS7003;11789;53.482;9.862;2023-06-24T03:44:12;23.25;22.75;15.00
23240;PMS7003;11789;53.482;9.862;2023-06-24T03:46:38;28.75;26.25;14.00
23240;PMS7003;11789;53.482;9.862;2023-06-24T03:49:03;25.75;25.75;17.25
23240;PMS7003;11789;53.482;9.862;2023-06-24T03:51:30;26.25;24.75;16.50
23240;PMS7003;11789;53.482;9.862;2023-06-24T03:53:56;26.25;25.00;16.25
23240;PMS7003;11789;53.482;9.862;2023-06-24T03:56:21;25.00;24.50;16.00
23240;PMS7003;11789;53.482;9.862;2023-06-24T03:58:47;33.25;31.25;17.00
23240;PMS7003;11789;53.482;9.862;2023-06-24T04:01:12;25.50;25.50;16.25
23240;PMS7003;11789;53.482;9.862;2023-06-24T04:03:37;24.75;20.50;14.50
23240;PMS7003;11789;53.482;9.862;2023-06-24T04:06:03;26.75;25.00;15.75
23240;PMS7003;11789;53.482;9.862;2023-06-24T04:08:28;25.75;24.50;16.50
23240;PMS7003;11789;53.482;9.862;2023-06-24T04:10:57;28.75;25.75;16.75
23240;PMS7003;11789;53.482;9.862;2023-06-24T04:13:25;26.50;23.25;16.00
23240;PMS7003;11789;53.482;9.862;2023-06-24T04:15:51;30.75;27.00;17.75
23240;PMS7003;11789;53.482;9.862;2023-06-24T04:18:17;25.25;22.75;14.00
23240;PMS7003;11789;53.482;9.862;2023-06-24T04:20:43;28.25;26.50;16.25
23240;PMS7003;11789;53.482;9.862;2023-06-24T04:23:09;28.50;27.00;16.25
23240;PMS7003;11789;53.482;9.862;2023-06-24T04:25:36;27.00;24.75;16.00
23240;PMS7003;11789;53.482;9.862;2023-06-24T04:28:02;24.50;24.50;18.00
23240;PMS7003;11789;53.482;9.862;2023-06-24T04:30:29;23.50;22.25;15.50
23240;PMS7003;11789;53.482;9.862;2023-06-24T04:32:56;29.00;25.25;15.75
23240;PMS7003;11789;53.482;9.862;2023-06-24T04:35:21;22.50;22.50;12.50
23240;PMS7003;11789;53.482;9.862;2023-06-24T04:37:46;27.50;26.00;19.00
23240;PMS7003;11789;53.482;9.862;2023-06-24T04:40:14;33.00;26.75;17.75
23240;PMS7003;11789;53.482;9.862;2023-06-24T04:42:40;23.75;22.50;11.75
23240;PMS7003;11789;53.482;9.862;2023-06-24T04:45:05;29.25;24.25;14.25
23240;PMS7003;11789;53.482;9.862;2023-06-24T04:47:31;26.00;21.75;14.25
23240;PMS7003;11789;53.482;9.862;2023-06-24T04:49:56;25.75;23.50;17.25
23240;PMS7003;11789;53.482;9.862;2023-06-24T04:52:23;25.50;25.50;16.25
23240;PMS7003;11789;53.482;9.862;2023-06-24T04:54:48;24.00;24.00;14.50
23240;PMS7003;11789;53.482;9.862;2023-06-24T04:57:28;22.75;22.75;16.50
23240;PMS7003;11789;53.482;9.862;2023-06-24T04:59:54;26.75;25.25;14.25
23240;PMS7003;11789;53.482;9.862;2023-06-24T05:02:21;21.75;20.25;13.50
23240;PMS7003;11789;53.482;9.862;2023-06-24T05:04:46;26.75;24.00;16.75
23240;PMS7003;11789;53.482;9.862;2023-06-24T05:07:12;32.50;25.75;16.25
23240;PMS7003;11789;53.482;9.862;2023-06-24T05:09:37;19.00;18.75;12.75
23240;PMS7003;11789;53.482;9.862;2023-06-24T05:12:04;23.50;23.50;16.25
23240;PMS7003;11789;53.482;9.862;2023-06-24T05:14:30;23.75;23.75;14.75
23240;PMS7003;11789;53.482;9.862;2023-06-24T05:16:55;23.50;22.50;15.00
23240;PMS7003;11789;53.482;9.862;2023-06-24T05:19:20;25.00;23.50;14.00
23240;PMS7003;11789;53.482;9.862;2023-06-24T05:21:46;27.50;25.75;17.75
23240;PMS7003;11789;53.482;9.862;2023-06-24T05:24:11;26.75;25.50;15.25
23240;PMS7003;11789;53.482;9.862;2023-06-24T05:26:37;27.75;26.00;17.50
23240;PMS7003;11789;53.482;9.862;2023-06-24T05:29:02;22.50;22.50;11.75
23240;PMS7003;11789;53.482;9.862;2023-06-24T05:31:28;23.25;21.75;14.75
23240;PMS7003;11789;53.482;9.862;2023-06-24T05:33:54;23.75;21.50;12.75
23240;PMS7003;11789;53.482;9.862;2023-06-24T05:36:19;19.00;16.50;12.00
23240;PMS7003;11789;53.482;9.862;2023-06-24T05:38:44;27.00;22.00;15.50
23240;PMS7003;11789;53.482;9.862;2023-06-24T05:41:10;25.50;25.50;14.00
23240;PMS7003;11789;53.482;9.862;2023-06-24T05:43:35;25.75;22.75;14.75
23240;PMS7003;11789;53.482;9.862;2023-06-24T05:46:01;25.75;22.25;14.50
23240;PMS7003;11789;53.482;9.862;2023-06-24T05:48:27;30.25;23.50;15.00
23240;PMS7003;11789;53.482;9.862;2023-06-24T05:50:52;24.00;23.00;13.75
23240;PMS7003;11789;53.482;9.862;2023-06-24T05:53:18;18.50;17.50;10.25
23240;PMS7003;11789;53.482;9.862;2023-06-24T05:55:44;22.00;19.00;11.25
23240;PMS7003;11789;53.482;9.862;2023-06-24T05:58:09;22.50;20.25;13.00
23240;PMS7003;11789;53.482;9.862;2023-06-24T06:00:35;28.25;25.50;16.50
23240;PMS7003;11789;53.482;9.862;2023-06-24T06:03:01;24.00;21.50;14.75
23240;PMS7003;11789;53.482;9.862;2023-06-24T06:05:27;22.25;20.50;13.50
23240;PMS7003;11789;53.482;9.862;2023-06-24T06:07:52;29.00;24.75;17.25
23240;PMS7003;11789;53.482;9.862;2023-06-24T06:10:18;26.25;21.75;15.75
23240;PMS7003;11789;53.482;9.862;2023-06-24T06:12:44;25.50;22.50;16.00
23240;PMS7003;11789;53.482;9.862;2023-06-24T06:15:10;27.50;23.50;14.00
23240;PMS7003;11789;53.482;9.862;2023-06-24T06:17:36;26.50;23.00;15.50
23240;PMS7003;11789;53.482;9.862;2023-06-24T06:20:01;30.50;25.25;18.00
23240;PMS7003;11789;53.482;9.862;2023-06-24T06:22:27;24.50;23.00;14.25
23240;PMS7003;11789;53.482;9.862;2023-06-24T06:24:53;23.50;23.50;15.00
23240;PMS7003;11789;53.482;9.862;2023-06-24T06:27:18;22.00;20.75;16.25
23240;PMS7003;11789;53.482;9.862;2023-06-24T06:29:43;25.00;23.50;14.25
23240;PMS7003;11789;53.482;9.862;2023-06-24T06:32:09;25.50;23.00;14.25
23240;PMS7003;11789;53.482;9.862;2023-06-24T06:34:34;25.00;22.75;15.25
23240;PMS7003;11789;53.482;9.862;2023-06-24T06:37:00;24.75;24.75;16.25
23240;PMS7003;11789;53.482;9.862;2023-06-24T06:39:25;26.00;24.25;16.50
23240;PMS7003;11789;53.482;9.862;2023-06-24T06:41:51;23.75;22.75;14.25
23240;PMS7003;11789;53.482;9.862;2023-06-24T06:44:17;26.00;23.75;15.00
23240;PMS7003;11789;53.482;9.862;2023-06-24T06:46:42;17.25;17.25;12.00
23240;PMS7003;11789;53.482;9.862;2023-06-24T06:49:07;22.50;19.25;13.25
23240;PMS7003;11789;53.482;9.862;2023-06-24T06:51:33;19.00;19.00;13.50
23240;PMS7003;11789;53.482;9.862;2023-06-24T06:54:00;26.50;26.00;16.75
23240;PMS7003;11789;53.482;9.862;2023-06-24T06:56:25;24.75;24.75;14.75
23240;PMS7003;11789;53.482;9.862;2023-06-24T06:58:51;26.75;23.50;14.75
23240;PMS7003;11789;53.482;9.862;2023-06-24T07:01:17;24.75;23.00;14.50
23240;PMS7003;11789;53.482;9.862;2023-06-24T07:03:43;16.25;15.00;12.00
23240;PMS7003;11789;53.482;9.862;2023-06-24T07:06:09;21.00;19.25;12.75
23240;PMS7003;11789;53.482;9.862;2023-06-24T07:08:34;21.25;17.50;11.50
23240;PMS7003;11789;53.482;9.862;2023-06-24T07:11:00;21.50;16.00;12.00
23240;PMS7003;11789;53.482;9.862;2023-06-24T07:13:27;17.25;17.25;12.00
23240;PMS7003;11789;53.482;9.862;2023-06-24T07:15:52;18.50;16.25;12.00
23240;PMS7003;11789;53.482;9.862;2023-06-24T07:18:18;15.25;13.75;11.75
23240;PMS7003;11789;53.482;9.862;2023-06-24T07:20:43;14.50;14.50;11.75
23240;PMS7003;11789;53.482;9.862;2023-06-24T07:23:08;13.25;13.25;10.50
23240;PMS7003;11789;53.482;9.862;2023-06-24T07:25:35;17.25;16.75;11.25
23240;PMS7003;11789;53.482;9.862;2023-06-24T07:28:00;16.50;15.50;10.50
23240;PMS7003;11789;53.482;9.862;2023-06-24T07:30:26;14.25;13.50;10.75
23240;PMS7003;11789;53.482;9.862;2023-06-24T07:32:51;14.75;13.75;10.75
23240;PMS7003;11789;53.482;9.862;2023-06-24T07:35:17;13.50;11.50;8.75
23240;PMS7003;11789;53.482;9.862;2023-06-24T07:37:44;14.75;13.50;10.25
23240;PMS7003;11789;53.482;9.862;2023-06-24T07:40:10;13.25;13.25;10.25
23240;PMS7003;11789;53.482;9.862;2023-06-24T07:42:35;17.00;14.00;9.75
23240;PMS7003;11789;53.482;9.862;2023-06-24T07:45:01;14.75;14.75;11.00
23240;PMS7003;11789;53.482;9.862;2023-06-24T07:47:26;15.00;14.00;10.75
23240;PMS7003;11789;53.482;9.862;2023-06-24T07:49:52;15.50;13.75;10.25
23240;PMS7003;11789;53.482;9.862;2023-06-24T07:52:17;14.75;14.75;9.25
23240;PMS7003;11789;53.482;9.862;2023-06-24T07:54:43;13.25;13.25;10.00
23240;PMS7003;11789;53.482;9.862;2023-06-24T07:57:08;10.00;10.00;8.00
23240;PMS7003;11789;53.482;9.862;2023-06-24T07:59:34;11.50;9.50;7.00
23240;PMS7003;11789;53.482;9.862;2023-06-24T08:01:59;11.25;9.50;8.00
23240;PMS7003;11789;53.482;9.862;2023-06-24T08:04:25;9.00;9.00;8.00
23240;PMS7003;11789;53.482;9.862;2023-06-24T08:06:51;12.00;8.75;6.00
23240;PMS7003;11789;53.482;9.862;2023-06-24T08:09:16;9.00;9.00;8.00
23240;PMS7003;11789;53.482;9.862;2023-06-24T08:11:42;12.25;11.25;8.00
23240;PMS7003;11789;53.482;9.862;2023-06-24T08:14:08;12.00;10.50;8.00
23240;PMS7003;11789;53.482;9.862;2023-06-24T08:16:34;12.00;10.25;8.00
23240;PMS7003;11789;53.482;9.862;2023-06-24T08:18:59;13.25;11.50;8.50
23240;PMS7003;11789;53.482;9.862;2023-06-24T08:21:24;12.50;10.75;7.25
23240;PMS7003;11789;53.482;9.862;2023-06-24T08:23:50;12.25;11.00;8.00
23240;PMS7003;11789;53.482;9.862;2023-06-24T08:26:16;9.00;9.00;7.00
23240;PMS7003;11789;53.482;9.862;2023-06-24T08:32:55;11.75;10.50;8.00
23240;PMS7003;11789;53.482;9.862;2023-06-24T08:35:39;13.50;10.50;7.75
23240;PMS7003;11789;53.482;9.862;2023-06-24T08:38:23;10.00;10.00;9.00
23240;PMS7003;11789;53.482;9.862;2023-06-24T08:41:07;10.50;10.50;7.00
23240;PMS7003;11789;53.482;9.862;2023-06-24T08:43:33;9.00;9.00;7.75
23240;PMS7003;11789;53.482;9.862;2023-06-24T08:45:58;10.25;10.25;8.25
23240;PMS7003;11789;53.482;9.862;2023-06-24T08:48:24;10.50;9.00;6.75
23240;PMS7003;11789;53.482;9.862;2023-06-24T08:51:04;9.00;9.00;7.00
23240;PMS7003;11789;53.482;9.862;2023-06-24T08:53:33;10.50;10.50;7.75
23240;PMS7003;11789;53.482;9.862;2023-06-24T08:56:00;11.75;11.75;9.00
23240;PMS7003;11789;53.482;9.862;2023-06-24T08:58:26;9.75;9.75;8.25
23240;PMS7003;11789;53.482;9.862;2023-06-24T09:00:52;9.75;9.75;7.00
23240;PMS7003;11789;53.482;9.862;2023-06-24T09:03:18;11.00;9.25;7.00
23240;PMS7003;11789;53.482;9.862;2023-06-24T09:05:43;11.50;9.50;7.25
23240;PMS7003;11789;53.482;9.862;2023-06-24T09:08:09;11.00;11.00;8.00
23240;PMS7003;11789;53.482;9.862;2023-06-24T09:10:36;14.25;11.00;8.00
23240;PMS7003;11789;53.482;9.862;2023-06-24T09:13:03;13.33;10.67;8.00
23240;PMS7003;11789;53.482;9.862;2023-06-24T09:15:30;12.33;10.67;8.00
23240;PMS7003;11789;53.482;9.862;2023-06-24T09:18:00;10.00;10.00;8.00
23240;PMS7003;11789;53.482;9.862;2023-06-24T09:20:27;12.67;10.33;8.00
23240;PMS7003;11789;53.482;9.862;2023-06-24T09:22:57;7.67;7.67;6.00
23240;PMS7003;11789;53.482;9.862;2023-06-24T09:25:27;12.00;10.00;8.00
23240;PMS7003;11789;53.482;9.862;2023-06-24T09:27:53;13.67;12.00;9.00
23240;PMS7003;11789;53.482;9.862;2023-06-24T09:30:24;10.67;9.33;7.33
23240;PMS7003;11789;53.482;9.862;2023-06-24T09:32:50;10.67;10.67;8.67
23240;PMS7003;11789;53.482;9.862;2023-06-24T09:35:21;9.67;9.67;7.00
23240;PMS7003;11789;53.482;9.862;2023-06-24T09:37:48;13.75;12.50;10.00
23240;PMS7003;11789;53.482;9.862;2023-06-24T09:40:17;12.00;11.00;8.67
23240;PMS7003;11789;53.482;9.862;2023-06-24T09:42:53;10.00;8.33;7.00
23240;PMS7003;11789;53.482;9.862;2023-06-24T09:45:27;9.67;9.00;7.00
23240;PMS7003;11789;53.482;9.862;2023-06-24T09:47:53;10.33;10.33;8.67
23240;PMS7003;11789;53.482;9.862;2023-06-24T09:50:20;11.33;11.00;8.00
23240;PMS7003;11789;53.482;9.862;2023-06-24T09:52:46;12.33;9.33;7.33
23240;PMS7003;11789;53.482;9.862;2023-06-24T09:55:14;9.00;9.00;8.00
23240;PMS7003;11789;53.482;9.862;2023-06-24T09:57:47;10.67;10.33;7.67
23240;PMS7003;11789;53.482;9.862;2023-06-24T10:00:16;11.00;11.00;8.00
23240;PMS7003;11789;53.482;9.862;2023-06-24T10:02:44;11.00;11.00;7.33
23240;PMS7003;11789;53.482;9.862;2023-06-24T10:05:12;9.00;9.00;7.67
23240;PMS7003;11789;53.482;9.862;2023-06-24T10:07:39;8.33;8.33;6.67
23240;PMS7003;11789;53.482;9.862;2023-06-24T10:10:05;11.00;11.00;8.33
23240;PMS7003;11789;53.482;9.862;2023-06-24T10:12:31;11.00;11.00;9.00
23240;PMS7003;11789;53.482;9.862;2023-06-24T10:14:58;11.67;11.67;8.67
23240;PMS7003;11789;53.482;9.862;2023-06-24T10:17:25;12.00;12.00;9.00
23240;PMS7003;11789;53.482;9.862;2023-06-24T10:19:51;13.33;11.33;8.00
23240;PMS7003;11789;53.482;9.862;2023-06-24T10:22:18;12.33;10.67;8.33
23240;PMS7003;11789;53.482;9.862;2023-06-24T10:24:48;11.67;10.00;8.00
23240;PMS7003;11789;53.482;9.862;2023-06-24T10:27:16;12.00;10.33;7.33
23240;PMS7003;11789;53.482;9.862;2023-06-24T10:29:46;14.00;14.00;10.33
23240;PMS7003;11789;53.482;9.862;2023-06-24T10:32:14;12.67;11.00;7.33
23240;PMS7003;11789;53.482;9.862;2023-06-24T10:44:49;12.33;12.33;9.67
23240;PMS7003;11789;53.482;9.862;2023-06-24T10:47:16;12.00;11.00;8.00
23240;PMS7003;11789;53.482;9.862;2023-06-24T10:49:41;12.00;10.67;7.00
23240;PMS7003;11789;53.482;9.862;2023-06-24T10:52:07;8.00;8.00;6.00
23240;PMS7003;11789;53.482;9.862;2023-06-24T10:54:35;14.67;13.67;10.00
23240;PMS7003;11789;53.482;9.862;2023-06-24T10:57:02;12.67;10.67;7.00
23240;PMS7003;11789;53.482;9.862;2023-06-24T10:59:39;10.33;10.33;7.33
23240;PMS7003;11789;53.482;9.862;2023-06-24T11:02:15;12.67;12.67;9.00
23240;PMS7003;11789;53.482;9.862;2023-06-24T11:05:03;13.67;12.33;9.00
23240;PMS7003;11789;53.482;9.862;2023-06-24T11:07:29;8.67;8.00;7.00
23240;PMS7003;11789;53.482;9.862;2023-06-24T11:09:57;11.50;9.25;7.25
23240;PMS7003;11789;53.482;9.862;2023-06-24T11:12:24;12.00;10.50;8.00
23240;PMS7003;11789;53.482;9.862;2023-06-24T11:14:51;10.33;10.00;8.00
23240;PMS7003;11789;53.482;9.862;2023-06-24T11:17:19;8.00;8.00;5.00
23240;PMS7003;11789;53.482;9.862;2023-06-24T11:19:44;9.00;7.33;6.00
23240;PMS7003;11789;53.482;9.862;2023-06-24T11:22:10;9.00;8.33;7.00
23240;PMS7003;11789;53.482;9.862;2023-06-24T11:24:36;10.00;10.00;7.67
23240;PMS7003;11789;53.482;9.862;2023-06-24T11:27:03;11.00;9.33;7.00
23240;PMS7003;11789;53.482;9.862;2023-06-24T11:29:29;8.25;8.25;6.50
23240;PMS7003;11789;53.482;9.862;2023-06-24T11:31:56;9.33;9.33;7.33
23240;PMS7003;11789;53.482;9.862;2023-06-24T11:34:21;8.67;8.00;7.00
23240;PMS7003;11789;53.482;9.862;2023-06-24T11:36:47;8.00;8.00;6.00
23240;PMS7003;11789;53.482;9.862;2023-06-24T11:39:26;11.00;9.00;7.75
23240;PMS7003;11789;53.482;9.862;2023-06-24T11:41:52;9.00;9.00;6.25
23240;PMS7003;11789;53.482;9.862;2023-06-24T11:44:25;6.50;6.00;4.00
23240;PMS7003;11789;53.482;9.862;2023-06-24T11:46:50;10.33;10.33;8.67
23240;PMS7003;11789;53.482;9.862;2023-06-24T11:49:16;9.00;9.00;7.00
23240;PMS7003;11789;53.482;9.862;2023-06-24T11:51:47;9.00;9.00;6.75
23240;PMS7003;11789;53.482;9.862;2023-06-24T11:54:14;7.00;7.00;5.00
23240;PMS7003;11789;53.482;9.862;2023-06-24T11:56:42;7.25;7.25;6.25
23240;PMS7003;11789;53.482;9.862;2023-06-24T11:59:15;8.75;8.75;5.75
23240;PMS7003;11789;53.482;9.862;2023-06-24T12:01:42;8.75;8.75;6.75
23240;PMS7003;11789;53.482;9.862;2023-06-24T12:04:12;8.00;8.00;7.00
23240;PMS7003;11789;53.482;9.862;2023-06-24T12:06:41;8.25;8.25;7.25
23240;PMS7003;11789;53.482;9.862;2023-06-24T12:09:10;7.00;7.00;6.00
23240;PMS7003;11789;53.482;9.862;2023-06-24T12:11:36;8.25;8.25;6.00
23240;PMS7003;11789;53.482;9.862;2023-06-24T12:14:02;7.75;7.75;6.00
23240;PMS7003;11789;53.482;9.862;2023-06-24T12:16:28;10.33;9.00;6.00
23240;PMS7003;11789;53.482;9.862;2023-06-24T12:18:54;10.50;9.00;8.00
23240;PMS7003;11789;53.482;9.862;2023-06-24T12:21:20;7.67;7.67;6.00
23240;PMS7003;11789;53.482;9.862;2023-06-24T12:23:45;9.33;7.67;5.33
23240;PMS7003;11789;53.482;9.862;2023-06-24T12:26:11;9.67;7.33;5.67
23240;PMS7003;11789;53.482;9.862;2023-06-24T12:28:37;10.00;10.00;7.33
23240;PMS7003;11789;53.482;9.862;2023-06-24T12:31:02;9.33;8.00;6.67
23240;PMS7003;11789;53.482;9.862;2023-06-24T12:33:28;12.33;8.67;7.67
23240;PMS7003;11789;53.482;9.862;2023-06-24T12:35:55;10.50;8.25;6.25
23240;PMS7003;11789;53.482;9.862;2023-06-24T12:38:20;8.33;8.00;7.00
23240;PMS7003;11789;53.482;9.862;2023-06-24T12:40:46;11.00;9.33;8.00
23240;PMS7003;11789;53.482;9.862;2023-06-24T12:43:13;9.33;9.33;6.67
23240;PMS7003;11789;53.482;9.862;2023-06-24T12:45:39;10.75;9.00;7.50
23240;PMS7003;11789;53.482;9.862;2023-06-24T12:48:08;8.50;8.50;6.25
23240;PMS7003;11789;53.482;9.862;2023-06-24T12:50:36;10.00;9.25;7.25
23240;PMS7003;11789;53.482;9.862;2023-06-24T12:53:02;9.67;9.67;8.00
23240;PMS7003;11789;53.482;9.862;2023-06-24T12:55:28;7.67;7.67;6.33
23240;PMS7003;11789;53.482;9.862;2023-06-24T12:57:54;9.75;9.75;7.25
23240;PMS7003;11789;53.482;9.862;2023-06-24T13:00:20;9.67;8.00;7.00
23240;PMS7003;11789;53.482;9.862;2023-06-24T13:02:47;9.75;9.25;7.25
23240;PMS7003;11789;53.482;9.862;2023-06-24T13:05:13;10.75;10.75;8.00
23240;PMS7003;11789;53.482;9.862;2023-06-24T13:07:38;8.00;8.00;7.00
23240;PMS7003;11789;53.482;9.862;2023-06-24T13:10:04;8.67;8.67;6.33
23240;PMS7003;11789;53.482;9.862;2023-06-24T13:12:33;9.75;9.75;6.75
23240;PMS7003;11789;53.482;9.862;2023-06-24T13:14:59;9.00;9.00;7.75
23240;PMS7003;11789;53.482;9.862;2023-06-24T13:17:24;8.33;8.33;7.33
23240;PMS7003;11789;53.482;9.862;2023-06-24T13:19:50;10.33;9.33;8.00
23240;PMS7003;11789;53.482;9.862;2023-06-24T13:22:16;11.00;9.00;7.00
23240;PMS7003;11789;53.482;9.862;2023-06-24T13:24:42;9.00;9.00;8.00
23240;PMS7003;11789;53.482;9.862;2023-06-24T13:27:08;11.00;9.00;7.33
23240;PMS7003;11789;53.482;9.862;2023-06-24T13:29:33;12.00;9.67;8.00
23240;PMS7003;11789;53.482;9.862;2023-06-24T13:31:59;11.00;11.00;8.33
23240;PMS7003;11789;53.482;9.862;2023-06-24T13:34:24;11.00;9.33;7.00
23240;PMS7003;11789;53.482;9.862;2023-06-24T13:36:50;12.33;10.00;9.00
23240;PMS7003;11789;53.482;9.862;2023-06-24T13:39:15;12.00;10.00;8.00
23240;PMS7003;11789;53.482;9.862;2023-06-24T13:41:47;12.50;12.50;8.75
23240;PMS7003;11789;53.482;9.862;2023-06-24T13:44:12;11.00;9.67;7.00
23240;PMS7003;11789;53.482;9.862;2023-06-24T13:46:38;9.67;9.67;7.33
23240;PMS7003;11789;53.482;9.862;2023-06-24T13:49:03;10.00;8.33;6.33
23240;PMS7003;11789;53.482;9.862;2023-06-24T13:51:29;9.67;9.67;7.00
23240;PMS7003;11789;53.482;9.862;2023-06-24T13:53:55;11.67;10.33;7.33
23240;PMS7003;11789;53.482;9.862;2023-06-24T13:56:21;9.00;9.00;6.67
23240;PMS7003;11789;53.482;9.862;2023-06-24T13:58:51;8.50;8.00;6.25
23240;PMS7003;11789;53.482;9.862;2023-06-24T14:01:17;8.00;8.00;6.25
23240;PMS7003;11789;53.482;9.862;2023-06-24T14:03:43;8.00;8.00;7.00
23240;PMS7003;11789;53.482;9.862;2023-06-24T14:06:10;8.50;8.50;8.00
23240;PMS7003;11789;53.482;9.862;2023-06-24T14:08:36;11.00;11.00;7.00
23240;PMS7003;11789;53.482;9.862;2023-06-24T14:11:01;9.00;9.00;7.33
23240;PMS7003;11789;53.482;9.862;2023-06-24T14:13:27;11.67;10.00;7.67
23240;PMS7003;11789;53.482;9.862;2023-06-24T14:15:54;8.75;8.75;7.25
23240;PMS7003;11789;53.482;9.862;2023-06-24T14:18:20;8.50;8.50;6.00
23240;PMS7003;11789;53.482;9.862;2023-06-24T14:20:45;9.67;9.00;7.00
23240;PMS7003;11789;53.482;9.862;2023-06-24T14:23:11;12.00;9.00;7.00